Time;durP1;ratioP1;P1;durP2;ratioP2;P2;SDS_P1;SDS_P2;PMS_P1;PMS_P2;Temp;Humidity;BMP_temperature;BMP_pressure;BME280_temperature;BME280_humidity;BME280_pressure;Samples;Min_cycle;Max_cycle;Signal;HPM_P1;HPM_P2
2021/03/26 00:00:42;;;;;;;135.45;60.42;;;;;;;;;;778128;178;917457;-67
2021/03/26 00:03:08;;;;;;;129.87;62.97;;;;;;;;;;776916;178;919300;-67
2021/03/26 00:05:33;;;;;;;151.83;63.80;;;;;;;;;;781113;178;917682;-67
2021/03/26 00:07:59;;;;;;;135.55;58.35;;;;;;;;;;777609;178;1019641;-68
2021/03/26 00:10:25;;;;;;;135.80;60.57;;;;;;;;;;775359;178;1019292;-67
2021/03/26 00:12:51;;;;;;;118.63;61.37;;;;;;;;;;784859;178;918716;-68
2021/03/26 00:15:17;;;;;;;114.33;55.93;;;;;;;;;;777798;179;915386;-68
2021/03/26 00:17:43;;;;;;;124.80;55.40;;;;;;;;;;777997;179;919399;-68
2021/03/26 00:20:09;;;;;;;118.93;56.88;;;;;;;;;;780235;179;1007180;-67
2021/03/26 00:22:35;;;;;;;129.90;58.13;;;;;;;;;;777968;179;916549;-68
2021/03/26 00:25:00;;;;;;;130.68;59.67;;;;;;;;;;775849;179;1010738;-69
2021/03/26 00:27:27;;;;;;;123.32;59.63;;;;;;;;;;783406;179;914698;-66
2021/03/26 00:29:53;;;;;;;140.97;62.97;;;;;;;;;;772155;179;867450;-68
2021/03/26 00:32:19;;;;;;;136.57;62.57;;;;;;;;;;777028;179;919870;-69
2021/03/26 00:34:47;;;;;;;135.73;62.63;;;;;;;;;;777800;179;919179;-69
2021/03/26 00:37:13;;;;;;;135.00;60.33;;;;;;;;;;782787;179;919820;-69
2021/03/26 00:39:39;;;;;;;118.90;56.60;;;;;;;;;;779365;179;919610;-70
2021/03/26 00:42:05;;;;;;;124.30;59.10;;;;;;;;;;771475;179;1692971;-70
2021/03/26 00:44:31;;;;;;;141.13;57.10;;;;;;;;;;782008;179;898622;-70
2021/03/26 00:46:57;;;;;;;131.67;59.17;;;;;;;;;;775583;179;918990;-70
2021/03/26 00:49:23;;;;;;;129.20;60.83;;;;;;;;;;778662;179;917742;-70
2021/03/26 00:51:49;;;;;;;133.10;63.00;;;;;;;;;;780528;179;918724;-70
2021/03/26 00:54:17;;;;;;;134.57;56.57;;;;;;;;;;778702;179;918963;-70
2021/03/26 00:56:41;;;;;;;135.15;58.53;;;;;;;;;;776138;179;910770;-69
2021/03/26 00:59:06;;;;;;;127.63;59.57;;;;;;;;;;777335;179;920037;-69
2021/03/26 01:01:32;;;;;;;127.47;59.80;;;;;;;;;;775441;179;2184882;-70
2021/03/26 01:03:58;;;;;;;139.90;60.20;;;;;;;;;;778824;179;919413;-69
2021/03/26 01:06:24;;;;;;;131.47;54.10;;;;;;;;;;776540;176;919009;-70
2021/03/26 01:08:50;;;;;;;114.22;56.42;;;;;;;;;;785827;178;919860;-70
2021/03/26 01:11:19;;;;;;;123.53;55.17;;;;;;;;;;776279;178;919003;-71
2021/03/26 01:13:45;;;;;;;124.77;57.57;;;;;;;;;;778232;178;919660;-70
2021/03/26 01:16:11;;;;;;;132.47;58.67;;;;;;;;;;782842;178;919461;-72
2021/03/26 01:18:38;;;;;;;121.77;60.07;;;;;;;;;;775327;178;918997;-71
2021/03/26 01:21:02;;;;;;;126.07;56.30;;;;;;;;;;778490;178;919520;-70
2021/03/26 01:23:28;;;;;;;134.83;63.00;;;;;;;;;;741457;179;5896771;-70
2021/03/26 01:25:54;;;;;;;134.47;56.70;;;;;;;;;;782934;179;918601;-68
2021/03/26 01:28:20;;;;;;;124.43;54.90;;;;;;;;;;775208;179;918783;-69
2021/03/26 01:30:46;;;;;;;136.70;59.30;;;;;;;;;;779115;179;917133;-72
2021/03/26 01:33:12;;;;;;;142.30;62.73;;;;;;;;;;781067;179;918536;-72
2021/03/26 01:35:38;;;;;;;139.33;61.13;;;;;;;;;;777570;179;919512;-74
2021/03/26 01:38:03;;;;;;;132.23;58.40;;;;;;;;;;769080;179;1843645;-71
2021/03/26 01:40:29;;;;;;;139.17;62.30;;;;;;;;;;782734;179;918755;-70
2021/03/26 01:43:01;;;;;;;141.20;59.63;;;;;;;;;;771260;179;1673532;-71
2021/03/26 01:45:27;;;;;;;133.53;57.37;;;;;;;;;;775944;179;918947;-70
2021/03/26 01:47:53;;;;;;;109.87;56.53;;;;;;;;;;770207;179;919242;-70
2021/03/26 01:50:19;;;;;;;140.57;62.93;;;;;;;;;;785145;179;919371;-70
2021/03/26 01:52:45;;;;;;;129.00;56.57;;;;;;;;;;779491;179;918791;-70
2021/03/26 01:55:12;;;;;;;121.27;58.43;;;;;;;;;;775080;179;918022;-71
2021/03/26 01:57:37;;;;;;;137.80;60.77;;;;;;;;;;778777;179;919131;-71
2021/03/26 02:00:05;;;;;;;126.85;54.97;;;;;;;;;;775608;179;919105;-72
2021/03/26 02:02:30;;;;;;;113.67;56.10;;;;;;;;;;778035;179;922165;-71
2021/03/26 02:04:56;;;;;;;134.77;57.13;;;;;;;;;;780903;179;918455;-70
2021/03/26 02:07:22;;;;;;;128.47;58.60;;;;;;;;;;777056;179;914680;-71
2021/03/26 02:09:48;;;;;;;128.53;58.03;;;;;;;;;;776422;179;913277;-71
2021/03/26 02:12:16;;;;;;;134.87;57.40;;;;;;;;;;776136;179;920611;-70
2021/03/26 02:14:41;;;;;;;110.23;54.07;;;;;;;;;;780509;179;921707;-71
2021/03/26 02:17:07;;;;;;;107.03;49.93;;;;;;;;;;779022;179;918896;-69
2021/03/26 02:19:34;;;;;;;113.20;55.67;;;;;;;;;;777500;178;929272;-70
2021/03/26 02:22:00;;;;;;;129.30;55.33;;;;;;;;;;784663;178;907448;-71
2021/03/26 02:24:26;;;;;;;103.80;51.43;;;;;;;;;;777743;178;921458;-71
2021/03/26 02:26:51;;;;;;;111.50;51.33;;;;;;;;;;779401;178;920141;-70
2021/03/26 02:29:23;;;;;;;127.63;57.90;;;;;;;;;;782363;178;912285;-73
2021/03/26 02:31:51;;;;;;;137.23;58.70;;;;;;;;;;776400;179;908895;-71
2021/03/26 02:34:16;;;;;;;137.37;57.50;;;;;;;;;;780404;178;911233;-70
2021/03/26 02:36:42;;;;;;;133.77;55.17;;;;;;;;;;776489;178;915972;-71
2021/03/26 02:39:09;;;;;;;134.98;57.22;;;;;;;;;;782607;179;913175;-70
2021/03/26 02:41:35;;;;;;;134.33;59.00;;;;;;;;;;775130;179;909022;-70
2021/03/26 02:44:01;;;;;;;121.33;59.57;;;;;;;;;;775723;179;919361;-70
2021/03/26 02:46:30;;;;;;;146.97;58.30;;;;;;;;;;779920;179;1007014;-71
2021/03/26 02:48:56;;;;;;;137.47;58.10;;;;;;;;;;774524;179;917158;-70
2021/03/26 02:51:24;;;;;;;112.90;52.70;;;;;;;;;;741632;179;5851823;-70
2021/03/26 02:54:01;;;;;;;130.07;61.67;;;;;;;;;;776702;179;915092;-70
2021/03/26 02:56:31;;;;;;;123.77;55.10;;;;;;;;;;775024;179;920298;-71
2021/03/26 02:58:57;;;;;;;118.60;55.10;;;;;;;;;;774410;180;913865;-71
2021/03/26 03:01:24;;;;;;;128.33;57.13;;;;;;;;;;773883;179;915330;-72
2021/03/26 03:03:50;;;;;;;118.27;52.50;;;;;;;;;;774667;179;914538;-71
2021/03/26 03:06:16;;;;;;;131.70;52.33;;;;;;;;;;779913;179;915233;-72
2021/03/26 03:08:41;;;;;;;131.03;57.20;;;;;;;;;;780853;179;914606;-72
2021/03/26 03:11:07;;;;;;;119.67;55.43;;;;;;;;;;751415;179;5310953;-71
2021/03/26 03:13:33;;;;;;;132.97;58.60;;;;;;;;;;774932;182;916164;-72
2021/03/26 03:16:03;;;;;;;112.70;54.50;;;;;;;;;;774891;179;1018300;-72
2021/03/26 03:18:29;;;;;;;115.43;53.03;;;;;;;;;;777885;179;915366;-72
2021/03/26 03:21:10;;;;;;;114.70;51.95;;;;;;;;;;777736;179;928556;-72
2021/03/26 03:23:38;;;;;;;122.57;53.63;;;;;;;;;;766346;179;916907;-72
2021/03/26 03:26:04;;;;;;;130.13;57.00;;;;;;;;;;783018;179;915328;-72
2021/03/26 03:28:32;;;;;;;123.15;55.08;;;;;;;;;;768601;179;1837012;-72
2021/03/26 03:30:58;;;;;;;119.00;53.17;;;;;;;;;;781560;178;925598;-72
2021/03/26 03:33:27;;;;;;;135.83;57.60;;;;;;;;;;770735;178;3067818;-72
2021/03/26 03:35:55;;;;;;;120.83;56.13;;;;;;;;;;778807;178;916399;-72
2021/03/26 03:38:27;;;;;;;141.40;56.83;;;;;;;;;;778876;178;914032;-72
2021/03/26 03:40:53;;;;;;;118.63;54.40;;;;;;;;;;779569;179;906500;-73
2021/03/26 03:43:20;;;;;;;123.50;54.77;;;;;;;;;;780687;178;915903;-72
2021/03/26 03:45:45;;;;;;;138.47;58.53;;;;;;;;;;779327;178;914445;-72
2021/03/26 03:48:11;;;;;;;132.80;55.60;;;;;;;;;;773308;179;920018;-72
2021/03/26 03:50:37;;;;;;;128.30;54.20;;;;;;;;;;776841;179;919753;-72
2021/03/26 03:53:04;;;;;;;117.37;51.60;;;;;;;;;;778615;179;919711;-72
2021/03/26 03:55:32;;;;;;;118.40;53.47;;;;;;;;;;778341;179;921927;-72
2021/03/26 03:57:57;;;;;;;122.22;51.70;;;;;;;;;;773160;179;1640104;-72
2021/03/26 04:00:24;;;;;;;121.13;52.25;;;;;;;;;;782467;179;919927;-72
2021/03/26 04:02:53;;;;;;;134.50;54.27;;;;;;;;;;779013;179;920954;-72
2021/03/26 04:05:19;;;;;;;108.72;53.53;;;;;;;;;;776470;179;1009665;-72
2021/03/26 04:07:46;;;;;;;122.18;53.65;;;;;;;;;;776719;179;919181;-72
2021/03/26 04:10:12;;;;;;;112.73;51.73;;;;;;;;;;778160;175;919846;-72
2021/03/26 04:12:38;;;;;;;116.20;56.60;;;;;;;;;;777404;179;919064;-72
2021/03/26 04:15:09;;;;;;;131.13;56.13;;;;;;;;;;770558;179;1015625;-72
2021/03/26 04:17:38;;;;;;;128.17;58.43;;;;;;;;;;782861;179;915450;-72
2021/03/26 04:20:05;;;;;;;103.47;51.00;;;;;;;;;;774134;179;1175863;-72
2021/03/26 04:22:31;;;;;;;129.50;56.10;;;;;;;;;;778594;179;920565;-72
2021/03/26 04:24:59;;;;;;;127.33;54.33;;;;;;;;;;772727;179;914602;-72
2021/03/26 04:27:35;;;;;;;119.70;55.87;;;;;;;;;;782463;179;919401;-72
2021/03/26 04:30:02;;;;;;;124.27;55.03;;;;;;;;;;775031;179;914663;-71
2021/03/26 04:32:28;;;;;;;121.68;56.60;;;;;;;;;;775955;179;917342;-72
2021/03/26 04:34:54;;;;;;;108.40;54.17;;;;;;;;;;774060;179;918797;-72
2021/03/26 04:37:23;;;;;;;126.83;56.60;;;;;;;;;;780310;179;920801;-72
2021/03/26 04:39:52;;;;;;;105.67;51.60;;;;;;;;;;776867;179;919198;-72
2021/03/26 04:42:18;;;;;;;124.53;54.00;;;;;;;;;;781173;176;919893;-72
2021/03/26 04:44:46;;;;;;;121.07;52.23;;;;;;;;;;782254;178;919934;-73
2021/03/26 04:47:13;;;;;;;137.67;55.40;;;;;;;;;;780243;179;916528;-73
2021/03/26 04:49:40;;;;;;;122.83;53.90;;;;;;;;;;781204;178;628589;-72
2021/03/26 04:52:06;;;;;;;126.50;57.27;;;;;;;;;;780099;179;647177;-72
2021/03/26 04:54:33;;;;;;;133.97;53.47;;;;;;;;;;784647;178;919253;-72
2021/03/26 04:56:59;;;;;;;126.22;56.60;;;;;;;;;;776013;178;921292;-73
2021/03/26 04:59:25;;;;;;;127.50;56.67;;;;;;;;;;779234;179;923292;-72
2021/03/26 05:01:50;;;;;;;143.40;56.77;;;;;;;;;;777548;179;1532234;-73
2021/03/26 05:04:19;;;;;;;120.30;53.27;;;;;;;;;;780845;179;918607;-72
2021/03/26 05:06:43;;;;;;;129.83;56.97;;;;;;;;;;776606;179;1022695;-73
2021/03/26 05:09:13;;;;;;;132.80;56.45;;;;;;;;;;778045;179;920407;-72
2021/03/26 05:11:39;;;;;;;129.87;53.63;;;;;;;;;;768796;179;911519;-72
2021/03/26 05:14:04;;;;;;;141.33;58.53;;;;;;;;;;777901;179;916849;-73
2021/03/26 05:16:34;;;;;;;142.70;57.23;;;;;;;;;;774845;179;919011;-73
2021/03/26 05:19:03;;;;;;;138.43;58.20;;;;;;;;;;781863;179;921387;-72
2021/03/26 05:21:30;;;;;;;157.80;57.47;;;;;;;;;;767017;179;999922;-73
2021/03/26 05:23:56;;;;;;;164.47;61.67;;;;;;;;;;779801;179;919001;-72
2021/03/26 05:26:23;;;;;;;157.23;60.53;;;;;;;;;;773333;179;919666;-71
2021/03/26 05:28:49;;;;;;;159.23;62.67;;;;;;;;;;783235;179;917959;-72
2021/03/26 05:31:22;;;;;;;152.40;61.97;;;;;;;;;;775866;179;918818;-72
2021/03/26 05:33:47;;;;;;;158.13;66.17;;;;;;;;;;779262;179;629048;-73
2021/03/26 05:36:15;;;;;;;149.17;64.17;;;;;;;;;;780192;179;636140;-72
2021/03/26 05:38:41;;;;;;;144.53;58.53;;;;;;;;;;770766;182;625720;-72
2021/03/26 05:41:24;;;;;;;143.43;62.20;;;;;;;;;;782717;179;683974;-72
2021/03/26 05:43:55;;;;;;;142.57;62.73;;;;;;;;;;761473;181;960843;-72
2021/03/26 05:46:27;;;;;;;179.20;66.80;;;;;;;;;;768996;179;654955;-73
2021/03/26 05:48:54;;;;;;;157.37;62.77;;;;;;;;;;777011;179;636291;-72
2021/03/26 05:51:25;;;;;;;190.17;70.83;;;;;;;;;;773212;182;634012;-73
2021/03/26 05:53:53;;;;;;;158.17;65.47;;;;;;;;;;783032;178;621904;-72
2021/03/26 05:56:19;;;;;;;180.73;68.00;;;;;;;;;;780749;178;801352;-71
2021/03/26 05:58:48;;;;;;;225.10;76.57;;;;;;;;;;782938;178;640018;-72
2021/03/26 06:01:28;;;;;;;216.47;74.53;;;;;;;;;;779596;179;637843;-70
2021/03/26 06:04:00;;;;;;;200.83;71.70;;;;;;;;;;774916;178;636947;-69
2021/03/26 06:06:32;;;;;;;187.23;71.73;;;;;;;;;;784497;178;638078;-69
2021/03/26 06:09:03;;;;;;;207.87;70.43;;;;;;;;;;778296;178;818410;-69
2021/03/26 06:11:50;;;;;;;201.00;70.47;;;;;;;;;;781051;179;628961;-68
2021/03/26 06:14:19;;;;;;;210.47;83.50;;;;;;;;;;773505;179;625855;-69
2021/03/26 06:16:46;;;;;;;214.70;73.67;;;;;;;;;;785214;179;634312;-69
2021/03/26 06:19:27;;;;;;;233.63;86.07;;;;;;;;;;779766;179;630995;-68
2021/03/26 06:21:54;;;;;;;198.20;78.57;;;;;;;;;;766361;181;633552;-67
2021/03/26 06:24:21;;;;;;;226.27;75.50;;;;;;;;;;769649;180;618307;-68
2021/03/26 06:27:03;;;;;;;214.80;75.57;;;;;;;;;;779709;179;635800;-67
2021/03/26 06:29:32;;;;;;;221.97;77.70;;;;;;;;;;763115;179;880896;-68
2021/03/26 06:32:16;;;;;;;225.17;77.87;;;;;;;;;;777360;179;647163;-67
2021/03/26 06:34:48;;;;;;;227.50;81.87;;;;;;;;;;771462;182;1005523;-67
2021/03/26 06:37:14;;;;;;;225.23;84.27;;;;;;;;;;781507;179;623071;-67
2021/03/26 06:39:39;;;;;;;216.77;81.13;;;;;;;;;;778729;179;635383;-67
2021/03/26 06:42:21;;;;;;;213.77;77.97;;;;;;;;;;782816;179;628293;-67
2021/03/26 06:44:50;;;;;;;163.40;74.37;;;;;;;;;;768674;182;640232;-67
2021/03/26 06:47:17;;;;;;;200.50;75.53;;;;;;;;;;776832;182;619128;-70
2021/03/26 06:49:57;;;;;;;188.90;73.57;;;;;;;;;;776260;179;1011185;-69
2021/03/26 06:52:27;;;;;;;174.27;63.57;;;;;;;;;;778949;179;627580;-69
2021/03/26 06:54:57;;;;;;;135.00;56.87;;;;;;;;;;775938;179;734359;-69
2021/03/26 06:57:26;;;;;;;148.33;57.40;;;;;;;;;;783880;179;628342;-67
2021/03/26 06:59:53;;;;;;;152.90;56.57;;;;;;;;;;776034;179;618029;-68
2021/03/26 07:02:34;;;;;;;142.40;58.00;;;;;;;;;;780671;179;625120;-66
2021/03/26 07:05:02;;;;;;;164.13;60.77;;;;;;;;;;776418;176;623053;-66
2021/03/26 07:07:45;;;;;;;164.87;65.70;;;;;;;;;;782677;178;632177;-65
2021/03/26 07:10:17;;;;;;;168.13;63.40;;;;;;;;;;764918;181;623973;-62
2021/03/26 07:12:50;;;;;;;146.37;59.53;;;;;;;;;;771940;182;633504;-64
2021/03/26 07:15:26;;;;;;;150.37;64.00;;;;;;;;;;773800;182;621579;-65
2021/03/26 07:17:51;;;;;;;158.90;58.80;;;;;;;;;;781628;178;628537;-66
2021/03/26 07:20:27;;;;;;;175.63;65.37;;;;;;;;;;783654;178;627930;-62
2021/03/26 07:22:59;;;;;;;155.97;66.20;;;;;;;;;;780915;178;633453;-61
2021/03/26 07:25:28;;;;;;;149.03;62.97;;;;;;;;;;781769;179;655678;-62
2021/03/26 07:27:55;;;;;;;187.57;72.90;;;;;;;;;;775477;179;621700;-62
2021/03/26 07:30:35;;;;;;;161.53;64.17;;;;;;;;;;782303;179;634910;-64
2021/03/26 07:33:02;;;;;;;143.50;56.67;;;;;;;;;;779332;179;675630;-62
2021/03/26 07:35:33;;;;;;;160.48;69.15;;;;;;;;;;781967;179;615514;-62
2021/03/26 07:38:05;;;;;;;152.87;65.97;;;;;;;;;;782838;179;625364;-66
2021/03/26 07:40:31;;;;;;;147.80;60.90;;;;;;;;;;777720;182;634290;-62
2021/03/26 07:43:02;;;;;;;136.90;55.83;;;;;;;;;;779804;179;621069;-62
2021/03/26 07:45:28;;;;;;;138.70;58.23;;;;;;;;;;781619;179;641216;-62
2021/03/26 07:47:56;;;;;;;240.20;106.33;;;;;;;;;;777978;179;1311728;-63
2021/03/26 07:50:38;;;;;;;133.13;55.37;;;;;;;;;;779585;179;650009;-63
2021/03/26 07:53:10;;;;;;;237.20;106.30;;;;;;;;;;764355;179;715629;-62
2021/03/26 07:55:38;;;;;;;151.03;63.37;;;;;;;;;;781364;178;635065;-62
2021/03/26 07:58:04;;;;;;;116.57;52.67;;;;;;;;;;777536;179;798873;-61
2021/03/26 08:00:30;;;;;;;110.53;50.90;;;;;;;;;;783566;179;619749;-62
2021/03/26 08:02:57;;;;;;;111.87;49.23;;;;;;;;;;779742;179;637989;-62
2021/03/26 08:05:26;;;;;;;120.63;50.07;;;;;;;;;;782255;179;676881;-62
2021/03/26 08:07:53;;;;;;;101.80;44.80;;;;;;;;;;778286;179;623658;-61
2021/03/26 08:10:37;;;;;;;103.10;45.07;;;;;;;;;;785244;179;626026;-61
2021/03/26 08:13:05;;;;;;;98.03;46.20;;;;;;;;;;773337;179;627427;-62
2021/03/26 08:15:35;;;;;;;93.40;45.10;;;;;;;;;;780363;178;639505;-62
2021/03/26 08:18:02;;;;;;;95.27;47.73;;;;;;;;;;782439;178;652786;-62
2021/03/26 08:20:28;;;;;;;108.90;44.03;;;;;;;;;;782535;178;622315;-62
2021/03/26 08:23:11;;;;;;;99.10;46.67;;;;;;;;;;776027;179;1044776;-63
2021/03/26 08:25:37;;;;;;;101.37;45.97;;;;;;;;;;777549;182;626987;-63
2021/03/26 08:28:11;;;;;;;97.43;46.03;;;;;;;;;;780561;179;615318;-61
2021/03/26 08:30:54;;;;;;;107.67;49.90;;;;;;;;;;780662;178;690022;-62
2021/03/26 08:33:38;;;;;;;105.70;49.10;;;;;;;;;;763204;180;639819;-61
2021/03/26 08:36:10;;;;;;;95.20;46.63;;;;;;;;;;767125;180;617712;-62
2021/03/26 08:38:52;;;;;;;89.50;42.38;;;;;;;;;;774914;179;1647966;-64
2021/03/26 08:41:18;;;;;;;79.57;41.20;;;;;;;;;;776234;179;618458;-62
2021/03/26 08:43:44;;;;;;;77.30;40.13;;;;;;;;;;780357;179;629855;-72
2021/03/26 08:46:17;;;;;;;75.70;35.60;;;;;;;;;;781835;179;627841;-62
2021/03/26 08:48:46;;;;;;;68.93;34.90;;;;;;;;;;777847;179;738190;-62
2021/03/26 08:51:18;;;;;;;71.07;37.77;;;;;;;;;;775936;179;706300;-63
2021/03/26 08:54:03;;;;;;;67.83;35.63;;;;;;;;;;783039;179;650982;-63
2021/03/26 08:56:46;;;;;;;76.60;37.07;;;;;;;;;;767627;182;632582;-62
2021/03/26 08:59:20;;;;;;;63.30;33.20;;;;;;;;;;761208;182;652127;-62
2021/03/26 09:01:46;;;;;;;75.67;32.33;;;;;;;;;;776249;179;623235;-62
2021/03/26 09:04:16;;;;;;;70.83;35.77;;;;;;;;;;780655;179;650244;-62
2021/03/26 09:07:00;;;;;;;69.27;31.67;;;;;;;;;;778108;179;630345;-63
2021/03/26 09:09:27;;;;;;;69.50;31.80;;;;;;;;;;780053;179;639618;-61
2021/03/26 09:11:55;;;;;;;62.87;31.23;;;;;;;;;;779320;179;635028;-65
2021/03/26 09:14:28;;;;;;;62.80;30.77;;;;;;;;;;777726;180;617739;-63
2021/03/26 09:16:55;;;;;;;67.63;32.70;;;;;;;;;;778945;179;623492;-61
2021/03/26 09:19:22;;;;;;;75.90;32.30;;;;;;;;;;782508;179;642991;-61
2021/03/26 09:22:03;;;;;;;63.10;32.50;;;;;;;;;;781420;179;633166;-61
2021/03/26 09:24:34;;;;;;;62.87;31.70;;;;;;;;;;776324;179;617562;-62
2021/03/26 09:27:05;;;;;;;66.57;32.90;;;;;;;;;;774781;180;700684;-62
2021/03/26 09:29:31;;;;;;;72.93;36.27;;;;;;;;;;785164;178;672999;-65
2021/03/26 09:31:57;;;;;;;59.73;31.50;;;;;;;;;;780187;178;631861;-61
2021/03/26 09:34:33;;;;;;;59.77;32.70;;;;;;;;;;785086;178;627670;-62
2021/03/26 09:37:14;;;;;;;61.03;32.20;;;;;;;;;;780082;179;640317;-62
2021/03/26 09:39:40;;;;;;;68.50;31.00;;;;;;;;;;777092;179;787481;-61
2021/03/26 09:42:12;;;;;;;60.33;30.90;;;;;;;;;;781073;178;626529;-62
2021/03/26 09:44:37;;;;;;;69.97;34.73;;;;;;;;;;782931;178;634816;-61
2021/03/26 09:47:06;;;;;;;60.55;30.35;;;;;;;;;;781843;179;641126;-61
2021/03/26 09:49:38;;;;;;;67.07;32.80;;;;;;;;;;782056;179;631985;-61
2021/03/26 09:52:09;;;;;;;63.40;31.37;;;;;;;;;;780047;179;616421;-61
2021/03/26 09:54:35;;;;;;;57.40;29.20;;;;;;;;;;782281;179;617752;-61
2021/03/26 09:57:02;;;;;;;66.20;30.27;;;;;;;;;;778061;179;635754;-61
2021/03/26 09:59:28;;;;;;;71.50;28.70;;;;;;;;;;773279;182;618524;-62
2021/03/26 10:01:56;;;;;;;64.33;30.50;;;;;;;;;;780076;179;633089;-62
2021/03/26 10:04:22;;;;;;;64.73;27.80;;;;;;;;;;781308;179;666278;-63
2021/03/26 10:06:57;;;;;;;60.20;28.63;;;;;;;;;;785377;179;631933;-62
2021/03/26 10:09:37;;;;;;;56.43;28.60;;;;;;;;;;778364;179;686704;-62
2021/03/26 10:11:59;;;;;;;50.77;26.13;;;;;;;;;;780630;179;687650;-61
2021/03/26 10:14:25;;;;;;;61.77;28.27;;;;;;;;;;778125;179;663260;-62
2021/03/26 10:16:56;;;;;;;63.97;29.85;;;;;;;;;;777755;179;1321520;-61
2021/03/26 10:19:23;;;;;;;60.43;29.50;;;;;;;;;;769863;182;650079;-62
2021/03/26 10:21:49;;;;;;;50.90;27.17;;;;;;;;;;781591;179;642477;-61
2021/03/26 10:24:15;;;;;;;66.57;29.43;;;;;;;;;;778201;179;629877;-61
2021/03/26 10:26:41;;;;;;;60.10;30.00;;;;;;;;;;784687;179;623193;-61
2021/03/26 10:29:22;;;;;;;57.73;30.33;;;;;;;;;;776628;179;630687;-63
2021/03/26 10:31:48;;;;;;;59.27;29.80;;;;;;;;;;783083;179;643930;-62
2021/03/26 10:34:16;;;;;;;54.33;29.03;;;;;;;;;;779948;179;640069;-61
2021/03/26 10:36:40;;;;;;;50.03;24.97;;;;;;;;;;784614;179;618651;-61
2021/03/26 10:39:07;;;;;;;49.87;23.97;;;;;;;;;;779513;178;630798;-61
2021/03/26 10:41:38;;;;;;;41.50;20.73;;;;;;;;;;784050;178;635262;-62
2021/03/26 10:44:09;;;;;;;54.97;27.67;;;;;;;;;;779798;178;635576;-61
2021/03/26 10:46:35;;;;;;;51.50;27.80;;;;;;;;;;785539;178;644511;-61
2021/03/26 10:49:03;;;;;;;55.83;25.87;;;;;;;;;;780449;178;620146;-62
2021/03/26 10:51:30;;;;;;;46.70;23.30;;;;;;;;;;782629;178;624346;-61
2021/03/26 10:53:57;;;;;;;51.50;27.27;;;;;;;;;;769630;179;1682139;-61
2021/03/26 10:56:25;;;;;;;51.97;25.53;;;;;;;;;;786699;178;623484;-62
2021/03/26 10:58:51;;;;;;;58.30;26.73;;;;;;;;;;776747;179;700658;-61
2021/03/26 11:01:18;;;;;;;46.55;23.23;;;;;;;;;;771232;179;628817;-61
2021/03/26 11:03:44;;;;;;;37.73;21.00;;;;;;;;;;771560;181;617054;-61
2021/03/26 11:06:21;;;;;;;52.10;24.37;;;;;;;;;;778529;179;625669;-62
2021/03/26 11:08:47;;;;;;;52.30;24.40;;;;;;;;;;781079;179;620707;-61
2021/03/26 11:11:16;;;;;;;39.60;19.20;;;;;;;;;;777888;179;629310;-61
2021/03/26 11:13:57;;;;;;;45.47;20.17;;;;;;;;;;781343;179;637080;-61
2021/03/26 11:16:23;;;;;;;47.15;20.55;;;;;;;;;;770540;179;1401585;-60
2021/03/26 11:18:50;;;;;;;56.43;22.83;;;;;;;;;;781500;179;657187;-61
2021/03/26 11:21:16;;;;;;;40.40;20.57;;;;;;;;;;779412;179;663381;-61
2021/03/26 11:23:42;;;;;;;42.10;20.20;;;;;;;;;;782554;179;618452;-63
2021/03/26 11:26:23;;;;;;;42.93;22.57;;;;;;;;;;779406;179;622992;-62
2021/03/26 11:29:02;;;;;;;35.77;16.37;;;;;;;;;;776027;182;614428;-63
2021/03/26 11:31:29;;;;;;;35.07;17.10;;;;;;;;;;775241;182;618534;-61
2021/03/26 11:34:00;;;;;;;38.80;19.57;;;;;;;;;;781707;179;650774;-61
2021/03/26 11:36:32;;;;;;;38.70;18.90;;;;;;;;;;779826;179;664088;-63
2021/03/26 11:39:01;;;;;;;36.90;19.30;;;;;;;;;;778786;179;696203;-61
2021/03/26 11:41:27;;;;;;;44.97;18.30;;;;;;;;;;779925;179;619461;-62
2021/03/26 11:43:53;;;;;;;35.43;18.33;;;;;;;;;;780947;179;649328;-63
2021/03/26 11:46:20;;;;;;;32.27;17.73;;;;;;;;;;779763;179;627506;-61
2021/03/26 11:48:45;;;;;;;38.83;18.27;;;;;;;;;;783518;179;627278;-61
2021/03/26 11:51:15;;;;;;;38.93;16.47;;;;;;;;;;780104;178;685408;-62
2021/03/26 11:53:41;;;;;;;48.60;21.00;;;;;;;;;;782989;178;619515;-61
2021/03/26 11:56:13;;;;;;;40.42;18.25;;;;;;;;;;783622;178;717244;-62
2021/03/26 11:58:50;;;;;;;40.33;18.73;;;;;;;;;;778553;182;619908;-62
2021/03/26 12:01:28;;;;;;;34.73;16.73;;;;;;;;;;774784;182;625027;-62
2021/03/26 12:03:59;;;;;;;34.70;16.27;;;;;;;;;;778453;178;1577430;-64
2021/03/26 12:06:25;;;;;;;30.60;15.27;;;;;;;;;;783363;178;627268;-61
2021/03/26 12:09:08;;;;;;;30.30;15.80;;;;;;;;;;778212;179;643076;-61
2021/03/26 12:11:35;;;;;;;31.07;16.80;;;;;;;;;;778772;179;706891;-61
2021/03/26 12:14:07;;;;;;;40.90;19.30;;;;;;;;;;783535;179;621340;-61
2021/03/26 12:16:33;;;;;;;38.23;16.93;;;;;;;;;;782951;179;652308;-61
2021/03/26 12:18:59;;;;;;;35.53;16.83;;;;;;;;;;781718;179;625065;-61
2021/03/26 12:21:44;;;;;;;34.43;16.23;;;;;;;;;;779399;179;1020644;-62
2021/03/26 12:24:17;;;;;;;35.23;16.67;;;;;;;;;;771947;179;676785;-62
2021/03/26 12:26:42;;;;;;;38.60;17.67;;;;;;;;;;785753;179;632423;-63
2021/03/26 12:29:10;;;;;;;33.23;14.37;;;;;;;;;;778841;179;632327;-63
2021/03/26 12:31:37;;;;;;;30.57;15.53;;;;;;;;;;778958;179;919102;-61
2021/03/26 12:34:02;;;;;;;41.13;16.87;;;;;;;;;;776332;179;667495;-63
2021/03/26 12:36:28;;;;;;;33.10;15.80;;;;;;;;;;776364;179;607787;-61
2021/03/26 12:38:55;;;;;;;34.83;17.30;;;;;;;;;;778487;179;623718;-61
2021/03/26 12:41:26;;;;;;;29.27;15.00;;;;;;;;;;780715;179;618601;-61
2021/03/26 12:43:54;;;;;;;35.03;16.43;;;;;;;;;;785454;179;627845;-61
2021/03/26 12:46:20;;;;;;;40.43;18.27;;;;;;;;;;778203;179;618793;-61
2021/03/26 12:48:59;;;;;;;31.00;16.10;;;;;;;;;;779078;179;652588;-60
2021/03/26 12:51:28;;;;;;;29.80;14.40;;;;;;;;;;782231;179;640508;-62
2021/03/26 12:53:59;;;;;;;31.83;15.33;;;;;;;;;;777846;179;631040;-60
2021/03/26 12:56:30;;;;;;;28.73;14.63;;;;;;;;;;783953;179;638868;-60
2021/03/26 12:59:02;;;;;;;32.00;15.63;;;;;;;;;;778169;179;625297;-63
2021/03/26 13:01:39;;;;;;;33.57;16.47;;;;;;;;;;779760;177;630356;-63
2021/03/26 13:04:05;;;;;;;34.87;17.40;;;;;;;;;;780340;178;799894;-60
2021/03/26 13:06:33;;;;;;;25.37;13.83;;;;;;;;;;781778;178;632958;-60
2021/03/26 13:09:05;;;;;;;24.50;13.80;;;;;;;;;;777929;178;623568;-67
2021/03/26 13:11:31;;;;;;;33.60;15.33;;;;;;;;;;780071;178;736931;-60
2021/03/26 13:14:00;;;;;;;37.20;17.73;;;;;;;;;;783076;178;626026;-65
2021/03/26 13:16:43;;;;;;;31.70;16.87;;;;;;;;;;778494;178;618366;-61
2021/03/26 13:19:13;;;;;;;28.60;15.53;;;;;;;;;;774505;179;641238;-60
2021/03/26 13:21:40;;;;;;;29.30;14.20;;;;;;;;;;761835;180;1696320;-60
2021/03/26 13:24:07;;;;;;;33.83;16.10;;;;;;;;;;781300;179;617637;-61
2021/03/26 13:26:33;;;;;;;35.53;14.87;;;;;;;;;;776369;179;620489;-62
2021/03/26 13:29:01;;;;;;;30.07;14.80;;;;;;;;;;784221;179;636379;-62
2021/03/26 13:31:32;;;;;;;28.40;13.13;;;;;;;;;;780749;179;627934;-61
2021/03/26 13:33:57;;;;;;;27.33;14.03;;;;;;;;;;782002;179;636915;-61
2021/03/26 13:36:40;;;;;;;24.30;12.63;;;;;;;;;;779781;179;634142;-62
2021/03/26 13:39:07;;;;;;;22.70;12.40;;;;;;;;;;779859;179;629329;-61
2021/03/26 13:41:34;;;;;;;22.57;13.10;;;;;;;;;;782325;179;618511;-63
2021/03/26 13:44:17;;;;;;;29.90;13.07;;;;;;;;;;781044;179;616790;-61
2021/03/26 13:46:43;;;;;;;31.43;14.50;;;;;;;;;;765023;179;669452;-62
2021/03/26 13:49:12;;;;;;;26.70;14.17;;;;;;;;;;781736;179;630609;-62
2021/03/26 13:51:37;;;;;;;23.97;12.30;;;;;;;;;;778149;179;639405;-62
2021/03/26 13:54:03;;;;;;;25.10;12.50;;;;;;;;;;779262;176;625965;-61
2021/03/26 13:56:29;;;;;;;23.37;12.30;;;;;;;;;;777735;179;627398;-62
2021/03/26 13:58:57;;;;;;;28.03;14.50;;;;;;;;;;781650;179;621126;-62
2021/03/26 14:01:26;;;;;;;29.00;15.37;;;;;;;;;;782801;179;620227;-61
2021/03/26 14:03:54;;;;;;;28.30;16.83;;;;;;;;;;780114;179;797017;-62
2021/03/26 14:06:24;;;;;;;23.20;13.87;;;;;;;;;;777633;179;623329;-61